createdAt,value
2022-08-20T00:04:10.462Z,23.00
2022-08-20T00:09:13.883Z,23.00
2022-08-20T00:14:16.299Z,23.10
2022-08-20T00:19:18.687Z,23.10
2022-08-20T00:24:21.076Z,23.10
2022-08-20T00:29:23.485Z,23.00
2022-08-20T00:34:26.122Z,23.00
2022-08-20T00:39:28.537Z,22.90
2022-08-20T00:44:30.958Z,22.90
2022-08-20T00:49:33.452Z,22.90
2022-08-20T00:54:53.068Z,23.00
2022-08-20T00:59:58.580Z,22.90
2022-08-20T01:05:01.624Z,22.90
2022-08-20T01:10:15.143Z,23.00
2022-08-20T01:15:30.790Z,23.00
2022-08-20T01:21:01.032Z,22.90
2022-08-20T01:26:06.166Z,22.80
2022-08-20T01:31:12.733Z,22.70
2022-08-20T01:36:17.442Z,22.70
2022-08-20T01:41:57.581Z,22.60
2022-08-20T01:47:15.151Z,22.50
2022-08-20T01:52:41.539Z,22.40
2022-08-20T01:57:44.533Z,22.40
2022-08-20T02:02:46.879Z,22.30
2022-08-20T02:07:49.421Z,22.30
2022-08-20T02:12:52.968Z,22.30
2022-08-20T02:17:57.908Z,22.30
2022-08-20T02:23:00.622Z,22.30
2022-08-20T02:28:06.617Z,22.40
2022-08-20T02:33:12.343Z,22.20
2022-08-20T02:38:15.958Z,22.20
2022-08-20T02:43:19.420Z,22.20
2022-08-20T02:48:23.132Z,22.30
2022-08-20T02:53:27.131Z,22.40
2022-08-20T02:58:29.607Z,22.40
2022-08-20T03:03:32.339Z,22.20
2022-08-20T03:08:35.765Z,22.40
2022-08-20T03:13:38.274Z,22.30
2022-08-20T03:18:44.037Z,22.40
2022-08-20T03:23:46.541Z,22.50
2022-08-20T03:28:49.409Z,22.40
2022-08-20T03:33:53.529Z,22.20
2022-08-20T03:38:58.056Z,22.10
2022-08-20T03:44:00.506Z,22.00
2022-08-20T03:49:03.449Z,22.00
2022-08-20T03:54:06.257Z,22.10
2022-08-20T03:59:08.915Z,22.00
2022-08-20T04:04:12.539Z,22.10
2022-08-20T04:09:15.691Z,22.10
2022-08-20T04:14:19.432Z,22.10
2022-08-20T04:19:23.664Z,22.00
2022-08-20T04:24:32.001Z,21.80
2022-08-20T04:29:36.578Z,21.90
2022-08-20T04:34:40.548Z,21.80
2022-08-20T04:39:42.984Z,21.90
2022-08-20T04:44:45.405Z,21.90
2022-08-20T04:49:47.787Z,22.10
2022-08-20T04:54:50.321Z,22.10
2022-08-20T04:59:58.949Z,22.20
2022-08-20T05:05:02.076Z,22.10
2022-08-20T05:10:06.116Z,22.20
2022-08-20T05:15:13.665Z,22.40
2022-08-20T05:20:18.396Z,22.40
2022-08-20T05:25:21.864Z,22.50
2022-08-20T05:30:24.337Z,22.70
2022-08-20T05:35:27.734Z,22.80
2022-08-20T05:40:30.118Z,22.90
2022-08-20T05:45:34.446Z,22.90
2022-08-20T05:50:37.734Z,23.00
2022-08-20T05:55:40.503Z,23.00
2022-08-20T06:00:42.935Z,23.10
2022-08-20T06:05:45.973Z,23.30
2022-08-20T06:10:48.381Z,23.60
2022-08-20T06:15:50.922Z,23.80
2022-08-20T06:20:53.887Z,24.20
2022-08-20T06:25:56.397Z,24.00
2022-08-20T06:30:58.736Z,24.30
2022-08-20T06:36:01.253Z,24.60
2022-08-20T06:41:03.663Z,24.50
2022-08-20T06:46:07.342Z,24.30
2022-08-20T06:51:10.383Z,24.50
2022-08-20T06:56:13.654Z,24.20
2022-08-20T07:01:21.000Z,24.40
2022-08-20T07:06:25.866Z,24.50
2022-08-20T07:11:31.553Z,24.80
2022-08-20T07:16:34.054Z,24.80
2022-08-20T07:21:36.918Z,25.00
2022-08-20T07:26:39.508Z,25.10
2022-08-20T07:32:00.298Z,25.00
2022-08-20T07:37:02.770Z,25.10
2022-08-20T07:42:07.298Z,25.00
2022-08-20T07:47:09.660Z,24.80
2022-08-20T07:52:13.296Z,25.10
2022-08-20T07:57:17.370Z,25.20
2022-08-20T08:02:19.924Z,25.30
2022-08-20T08:07:23.414Z,25.80
2022-08-20T08:12:34.715Z,25.90
2022-08-20T08:17:38.099Z,26.20
2022-08-20T08:22:44.246Z,26.60
2022-08-20T08:27:48.826Z,26.90
2022-08-20T08:33:09.707Z,26.90
2022-08-20T08:38:14.434Z,27.00
2022-08-20T08:43:21.227Z,26.40
2022-08-20T08:48:31.757Z,26.40
2022-08-20T08:53:39.371Z,26.70
2022-08-20T08:58:44.305Z,27.20
2022-08-20T09:03:50.637Z,27.30
2022-08-20T09:08:59.215Z,27.30
2022-08-20T09:14:02.388Z,27.00
2022-08-20T09:19:05.591Z,27.10
2022-08-20T09:24:08.284Z,27.30
2022-08-20T09:29:10.707Z,27.30
2022-08-20T09:34:13.363Z,27.20
2022-08-20T09:39:15.993Z,27.30
2022-08-20T09:44:18.381Z,27.10
2022-08-20T09:49:20.732Z,26.70
2022-08-20T09:54:23.257Z,26.90
2022-08-20T09:59:26.832Z,26.80
2022-08-20T10:04:29.280Z,26.70
2022-08-20T10:09:34.861Z,26.90
2022-08-20T10:14:37.265Z,26.80
2022-08-20T10:19:39.989Z,26.80
2022-08-20T10:24:42.582Z,26.90
2022-08-20T10:29:46.981Z,26.70
2022-08-20T10:34:49.678Z,27.20
2022-08-20T10:39:52.955Z,27.50
2022-08-20T10:44:55.354Z,27.70
2022-08-20T10:50:02.192Z,27.70
2022-08-20T10:55:05.770Z,27.60
2022-08-20T11:00:12.039Z,27.60
2022-08-20T11:05:14.496Z,27.90
2022-08-20T11:10:17.085Z,28.10
2022-08-20T11:15:19.506Z,28.00
2022-08-20T11:20:26.114Z,27.90
2022-08-20T11:25:29.272Z,27.60
2022-08-20T11:30:34.611Z,27.50
2022-08-20T11:35:49.236Z,27.90
2022-08-20T11:40:52.262Z,27.80
2022-08-20T11:45:56.126Z,27.70
2022-08-20T11:50:58.496Z,27.40
2022-08-20T11:56:01.711Z,27.40
2022-08-20T12:01:06.669Z,27.50
2022-08-20T12:06:09.147Z,28.30
2022-08-20T12:11:11.773Z,28.20
2022-08-20T12:16:14.702Z,28.20
2022-08-20T12:21:17.260Z,28.30
2022-08-20T12:26:19.698Z,28.60
2022-08-20T12:31:22.100Z,28.40
2022-08-20T12:36:24.447Z,28.70
2022-08-20T12:41:29.754Z,29.20
2022-08-20T12:46:32.126Z,29.30
2022-08-20T12:51:34.505Z,29.80
2022-08-20T12:56:36.958Z,29.70
2022-08-20T13:01:39.541Z,29.90
2022-08-20T13:06:41.939Z,29.80
2022-08-20T13:11:44.460Z,29.50
2022-08-20T13:16:46.894Z,29.30
2022-08-20T13:21:54.796Z,28.50
2022-08-20T13:27:24.740Z,28.20
2022-08-20T13:32:27.152Z,28.10
2022-08-20T13:37:30.247Z,28.10
2022-08-20T13:42:32.606Z,28.00
2022-08-20T13:47:38.318Z,28.10
2022-08-20T13:52:42.685Z,28.20
2022-08-20T13:57:46.021Z,28.40
2022-08-20T14:02:48.840Z,28.50
2022-08-20T14:07:51.276Z,28.70
2022-08-20T14:12:53.727Z,28.60
2022-08-20T14:17:57.450Z,28.70
2022-08-20T14:23:01.237Z,28.90
2022-08-20T14:28:29.587Z,28.90
2022-08-20T14:33:32.029Z,28.80
2022-08-20T14:38:34.358Z,28.80
2022-08-20T14:43:36.802Z,28.60
2022-08-20T14:48:39.234Z,28.50
2022-08-20T14:53:41.624Z,28.30
2022-08-20T14:58:44.395Z,27.70
2022-08-20T15:03:47.065Z,28.00
2022-08-20T15:08:49.665Z,27.50
2022-08-20T15:13:54.253Z,27.30
2022-08-20T15:18:59.621Z,27.10
2022-08-20T15:24:02.449Z,26.80
2022-08-20T15:29:04.880Z,26.10
2022-08-20T15:34:07.291Z,25.50
2022-08-20T15:39:20.041Z,24.70
2022-08-20T15:44:22.477Z,24.00
2022-08-20T15:49:24.995Z,23.30
2022-08-20T15:54:27.972Z,22.80
2022-08-20T15:59:59.653Z,22.50
2022-08-20T16:05:20.259Z,22.30
2022-08-20T16:10:40.674Z,21.60
2022-08-20T16:15:48.895Z,21.50
2022-08-20T16:20:55.039Z,21.40
2022-08-20T16:26:15.527Z,21.40
2022-08-20T16:31:23.671Z,21.50
2022-08-20T16:36:37.061Z,21.50
2022-08-20T16:41:43.618Z,21.60
2022-08-20T16:46:53.046Z,21.80
2022-08-20T16:51:55.588Z,22.00
2022-08-20T16:57:01.850Z,21.80
2022-08-20T17:02:10.219Z,21.90
2022-08-20T17:07:13.571Z,21.80
2022-08-20T17:12:28.524Z,21.90
2022-08-20T17:17:33.537Z,21.80
2022-08-20T17:22:42.842Z,21.80
2022-08-20T17:27:46.397Z,21.70
2022-08-20T17:32:57.767Z,21.70
2022-08-20T17:38:02.887Z,21.70
2022-08-20T17:43:10.215Z,21.70
2022-08-20T17:48:25.853Z,21.60
2022-08-20T17:53:37.441Z,21.50
2022-08-20T17:58:55.170Z,21.50
2022-08-20T18:03:59.158Z,21.40
2022-08-20T18:09:17.682Z,21.30
2022-08-20T18:14:41.542Z,21.40
2022-08-20T18:20:08.584Z,21.40
2022-08-20T18:25:23.469Z,21.20
2022-08-20T18:30:27.089Z,21.30
2022-08-20T18:35:46.130Z,21.40
2022-08-20T18:40:52.113Z,21.30
2022-08-20T18:46:09.964Z,21.30
2022-08-20T18:51:13.071Z,21.20
2022-08-20T18:56:16.032Z,21.20
2022-08-20T19:01:19.225Z,21.10
2022-08-20T19:06:40.343Z,21.00
2022-08-20T19:12:12.028Z,20.90
2022-08-20T19:17:40.313Z,21.00
2022-08-20T19:22:44.682Z,20.90
2022-08-20T19:27:47.901Z,20.90
2022-08-20T19:32:52.864Z,20.70
2022-08-20T19:37:55.373Z,20.70
2022-08-20T19:43:01.641Z,20.70
2022-08-20T19:48:26.946Z,20.70
2022-08-20T19:53:32.891Z,20.80
2022-08-20T19:58:35.764Z,20.80
2022-08-20T20:03:38.656Z,20.80
2022-08-20T20:08:45.804Z,20.70
2022-08-20T20:13:48.476Z,20.70
2022-08-20T20:19:09.179Z,20.80
2022-08-20T20:24:29.183Z,20.80
2022-08-20T20:29:36.838Z,20.90
2022-08-20T20:34:55.312Z,20.90
2022-08-20T20:40:07.767Z,20.80
2022-08-20T20:45:23.154Z,20.80
2022-08-20T20:50:34.644Z,20.80
2022-08-20T20:55:38.079Z,20.70
2022-08-20T21:00:40.468Z,20.70
2022-08-20T21:05:42.833Z,20.70
2022-08-20T21:10:45.303Z,20.70
2022-08-20T21:15:48.019Z,20.70
2022-08-20T21:20:52.550Z,20.60
2022-08-20T21:25:54.967Z,20.60
2022-08-20T21:31:00.804Z,20.60
2022-08-20T21:36:03.413Z,20.60
2022-08-20T21:41:05.858Z,20.50
2022-08-20T21:46:11.111Z,20.50
2022-08-20T21:51:15.292Z,20.50
2022-08-20T21:56:18.420Z,20.50
2022-08-20T22:01:20.819Z,20.50
2022-08-20T22:06:23.453Z,20.40
2022-08-20T22:11:26.485Z,20.50
2022-08-20T22:16:29.173Z,20.50
2022-08-20T22:21:33.554Z,20.50
2022-08-20T22:26:38.723Z,20.40
2022-08-20T22:31:43.249Z,20.50
2022-08-20T22:36:46.252Z,20.40
2022-08-20T22:41:48.622Z,20.40
2022-08-20T22:46:55.766Z,20.40
2022-08-20T22:51:58.659Z,20.30
2022-08-20T22:57:01.207Z,20.40
2022-08-20T23:02:08.560Z,20.30
2022-08-20T23:07:13.633Z,20.40
2022-08-20T23:12:16.069Z,20.40
2022-08-20T23:17:19.922Z,20.30
2022-08-20T23:22:22.476Z,20.30
2022-08-20T23:27:25.683Z,20.10
2022-08-20T23:32:28.014Z,20.00
2022-08-20T23:37:31.415Z,19.80
2022-08-20T23:42:33.900Z,19.60
2022-08-20T23:47:36.351Z,19.60
2022-08-20T23:52:38.865Z,19.50
2022-08-20T23:57:41.366Z,19.40
